Time;durP1;ratioP1;P1;durP2;ratioP2;P2;SDS_P1;SDS_P2;PMS_P1;PMS_P2;Temp;Humidity;BMP_temperature;BMP_pressure;BME280_temperature;BME280_humidity;BME280_pressure;Samples;Min_cycle;Max_cycle;Signal;HPM_P1;HPM_P2
2024/01/24 00:01:34;;;;;;;0.95;0.73;;;6.20;99.90;;;;;;4938897;28;20647;-70
2024/01/24 00:04:00;;;;;;;0.73;0.73;;;6.20;99.90;;;;;;4934119;29;20436;-70
2024/01/24 00:06:26;;;;;;;1.83;0.80;;;6.20;99.90;;;;;;4931814;28;20037;-70
2024/01/24 00:08:52;;;;;;;0.80;0.80;;;6.20;99.90;;;;;;4934036;28;20039;-70
2024/01/24 00:11:18;;;;;;;1.80;1.02;;;6.30;99.90;;;;;;4920830;29;20046;-69
2024/01/24 00:13:44;;;;;;;0.70;0.70;;;6.30;99.90;;;;;;4937867;29;20031;-71
2024/01/24 00:16:09;;;;;;;1.08;0.77;;;6.30;99.90;;;;;;4932836;28;20078;-71
2024/01/24 00:18:35;;;;;;;0.77;0.77;;;6.30;99.90;;;;;;4938034;28;20347;-70
2024/01/24 00:21:01;;;;;;;1.02;0.93;;;6.30;99.90;;;;;;4947036;28;20038;-70
2024/01/24 00:23:27;;;;;;;0.88;0.80;;;6.40;99.90;;;;;;4928697;29;20039;-71
2024/01/24 00:25:53;;;;;;;1.50;0.80;;;6.40;99.90;;;;;;4944734;28;20054;-70
2024/01/24 00:28:21;;;;;;;0.70;0.70;;;6.50;99.90;;;;;;4944178;28;20110;-70
2024/01/24 00:30:46;;;;;;;0.77;0.77;;;6.60;99.90;;;;;;4943201;28;20046;-70
2024/01/24 00:33:12;;;;;;;0.95;0.80;;;6.60;99.90;;;;;;4942631;28;20027;-70
2024/01/24 00:35:38;;;;;;;3.03;0.98;;;6.70;99.90;;;;;;4943099;29;20405;-70
2024/01/24 00:38:04;;;;;;;1.00;0.80;;;6.60;99.90;;;;;;4945288;29;20033;-69
2024/01/24 00:40:29;;;;;;;1.00;0.68;;;6.60;99.90;;;;;;4929232;29;20027;-69
2024/01/24 00:42:55;;;;;;;1.50;0.90;;;6.60;99.90;;;;;;4938583;28;20074;-69
2024/01/24 00:45:21;;;;;;;0.82;0.82;;;6.70;99.90;;;;;;4949654;28;20027;-69
2024/01/24 00:47:46;;;;;;;1.08;0.80;;;6.60;99.90;;;;;;4962013;28;20467;-73
2024/01/24 00:50:12;;;;;;;1.17;0.75;;;6.60;99.90;;;;;;4969310;29;21398;-72
2024/01/24 00:52:37;;;;;;;0.60;0.60;;;6.70;99.90;;;;;;4965506;28;20436;-71
2024/01/24 00:55:04;;;;;;;1.50;0.85;;;6.80;99.90;;;;;;4969377;29;20055;-73
2024/01/24 00:57:30;;;;;;;0.60;0.60;;;6.90;99.90;;;;;;4969669;28;20066;-71
2024/01/24 00:59:55;;;;;;;0.80;0.80;;;7.00;99.90;;;;;;4963011;28;20038;-72
2024/01/24 01:02:21;;;;;;;2.08;0.77;;;6.90;99.90;;;;;;4967080;28;20035;-72
2024/01/24 01:04:46;;;;;;;0.60;0.60;;;7.00;99.90;;;;;;4956664;28;20103;-71
2024/01/24 01:07:12;;;;;;;1.00;0.80;;;6.90;99.90;;;;;;4965450;28;20027;-73
2024/01/24 01:09:38;;;;;;;2.35;0.70;;;6.90;99.90;;;;;;4970911;29;20032;-73
2024/01/24 01:12:04;;;;;;;0.73;0.73;;;7.00;99.90;;;;;;4972637;28;20052;-73
2024/01/24 01:14:29;;;;;;;0.65;0.65;;;7.00;99.90;;;;;;4969567;28;20016;-74
2024/01/24 01:16:55;;;;;;;0.85;0.63;;;7.10;99.90;;;;;;4972802;28;20046;-74
2024/01/24 01:19:20;;;;;;;1.38;0.77;;;7.10;99.90;;;;;;4970051;28;20023;-70
2024/01/24 01:21:46;;;;;;;0.70;0.70;;;7.20;99.90;;;;;;4960962;28;20027;-72
2024/01/24 01:24:12;;;;;;;1.15;0.70;;;7.10;99.90;;;;;;4963473;28;20035;-72
2024/01/24 01:26:37;;;;;;;0.82;0.80;;;7.20;99.90;;;;;;4960977;28;20059;-73
2024/01/24 01:29:03;;;;;;;1.00;1.00;;;7.20;99.90;;;;;;4957489;28;20038;-72
2024/01/24 01:31:29;;;;;;;1.65;0.70;;;7.20;99.90;;;;;;4956530;28;20043;-72
2024/01/24 01:33:55;;;;;;;0.75;0.57;;;7.20;99.90;;;;;;4955326;28;20115;-72
2024/01/24 01:36:21;;;;;;;1.10;1.00;;;7.30;99.90;;;;;;4957439;29;20050;-72
2024/01/24 01:38:47;;;;;;;0.95;0.77;;;7.30;99.90;;;;;;4951455;28;20039;-71
2024/01/24 01:41:12;;;;;;;1.65;0.77;;;7.30;99.90;;;;;;4947487;28;20667;-71
2024/01/24 01:43:38;;;;;;;4.18;0.82;;;7.30;99.90;;;;;;4932646;29;20039;-70
2024/01/24 01:46:10;;;;;;;1.13;0.60;;;7.30;99.90;;;;;;4939387;29;20107;-72
2024/01/24 01:48:36;;;;;;;1.02;0.80;;;7.20;99.90;;;;;;4950650;28;20023;-72
2024/01/24 01:51:02;;;;;;;0.90;0.70;;;7.20;99.90;;;;;;4959078;28;20543;-73
2024/01/24 01:53:28;;;;;;;1.02;0.70;;;7.20;99.90;;;;;;4944406;28;20339;-70
2024/01/24 01:55:54;;;;;;;0.60;0.60;;;7.30;99.90;;;;;;4936703;29;20040;-70
2024/01/24 01:58:21;;;;;;;1.30;0.73;;;7.30;99.90;;;;;;4943232;28;20567;-71
2024/01/24 02:00:50;;;;;;;0.65;0.60;;;7.50;99.90;;;;;;4936788;28;20032;-70
2024/01/24 02:03:15;;;;;;;0.55;0.55;;;7.60;99.90;;;;;;4916664;29;20406;-70
2024/01/24 02:05:44;;;;;;;2.65;1.05;;;7.50;99.90;;;;;;4934070;28;20027;-70
2024/01/24 02:08:10;;;;;;;1.65;0.70;;;7.50;99.90;;;;;;4939362;29;20054;-70
2024/01/24 02:10:35;;;;;;;1.00;0.60;;;7.60;99.90;;;;;;4938961;28;20043;-70
2024/01/24 02:13:01;;;;;;;1.02;0.80;;;7.50;99.90;;;;;;4933909;28;20461;-71
2024/01/24 02:15:29;;;;;;;2.17;1.08;;;7.50;99.90;;;;;;4935828;28;20034;-70
2024/01/24 02:17:54;;;;;;;2.30;0.70;;;7.40;99.90;;;;;;4935586;29;20063;-70
2024/01/24 02:20:22;;;;;;;0.50;0.50;;;7.50;99.90;;;;;;4915768;29;20058;-70
2024/01/24 02:22:47;;;;;;;0.93;0.90;;;7.50;99.90;;;;;;4923574;29;20090;-72
2024/01/24 02:25:13;;;;;;;1.02;0.80;;;7.60;99.90;;;;;;4932948;28;20027;-71
2024/01/24 02:27:39;;;;;;;1.27;0.60;;;7.60;99.90;;;;;;4917751;29;20027;-70
2024/01/24 02:30:05;;;;;;;1.02;0.52;;;7.60;99.90;;;;;;4946441;28;20024;-70
2024/01/24 02:32:30;;;;;;;0.75;0.75;;;7.60;99.90;;;;;;4942823;28;20079;-70
2024/01/24 02:34:56;;;;;;;2.35;0.80;;;7.60;99.90;;;;;;4945373;28;20040;-70
2024/01/24 02:37:22;;;;;;;1.45;0.75;;;7.60;99.90;;;;;;4952266;29;20039;-72
2024/01/24 02:39:48;;;;;;;1.27;0.60;;;7.60;99.90;;;;;;4935930;29;20027;-71
2024/01/24 02:42:14;;;;;;;0.63;0.60;;;7.70;99.90;;;;;;4940737;29;20027;-74
2024/01/24 02:44:40;;;;;;;2.42;0.70;;;7.60;99.90;;;;;;4937064;28;20047;-72
2024/01/24 02:47:06;;;;;;;3.33;0.70;;;7.60;99.90;;;;;;4939879;29;20430;-73
2024/01/24 02:49:31;;;;;;;2.20;0.90;;;7.60;99.90;;;;;;4954969;28;20416;-71
2024/01/24 02:52:01;;;;;;;3.08;0.80;;;7.70;99.90;;;;;;4954043;29;20031;-73
2024/01/24 02:54:28;;;;;;;1.15;0.70;;;7.80;99.90;;;;;;4939544;29;20043;-71
2024/01/24 02:56:53;;;;;;;1.60;0.77;;;7.90;99.90;;;;;;4954626;29;20083;-73
2024/01/24 02:59:19;;;;;;;2.63;0.80;;;7.90;99.90;;;;;;4950854;28;20043;-72
2024/01/24 03:01:45;;;;;;;2.40;0.77;;;7.90;99.90;;;;;;4949210;29;20040;-72
2024/01/24 03:04:10;;;;;;;0.38;0.38;;;7.90;99.90;;;;;;4953032;28;20038;-72
2024/01/24 03:06:37;;;;;;;0.85;0.77;;;7.90;99.90;;;;;;4938453;29;20106;-74
2024/01/24 03:09:03;;;;;;;0.45;0.45;;;7.90;99.90;;;;;;4940385;28;20085;-74
2024/01/24 03:11:28;;;;;;;0.40;0.40;;;7.90;99.90;;;;;;4958211;28;20027;-71
2024/01/24 03:13:54;;;;;;;0.50;0.50;;;7.90;99.90;;;;;;4957502;28;20520;-72
2024/01/24 03:16:20;;;;;;;1.13;0.90;;;7.90;99.90;;;;;;4958095;28;20628;-70
2024/01/24 03:18:47;;;;;;;0.60;0.60;;;7.90;99.90;;;;;;4944128;29;20126;-71
2024/01/24 03:21:17;;;;;;;1.80;0.90;;;8.10;99.90;;;;;;4947984;29;20051;-72
2024/01/24 03:23:44;;;;;;;1.05;0.70;;;8.20;99.90;;;;;;4933930;28;20056;-69
2024/01/24 03:26:10;;;;;;;1.20;0.30;;;8.40;99.90;;;;;;4960316;28;20386;-75
2024/01/24 03:28:36;;;;;;;0.50;0.50;;;8.50;99.90;;;;;;4959485;28;20027;-73
2024/01/24 03:31:03;;;;;;;0.70;0.70;;;8.50;99.90;;;;;;4941391;29;20127;-73
2024/01/24 03:33:29;;;;;;;0.98;0.70;;;8.70;99.90;;;;;;4941330;29;20055;-72
2024/01/24 03:35:54;;;;;;;0.55;0.50;;;9.00;99.90;;;;;;4947435;28;20043;-71
2024/01/24 03:38:20;;;;;;;0.40;0.40;;;9.10;99.90;;;;;;4957708;28;20419;-74
2024/01/24 03:40:46;;;;;;;0.30;0.30;;;9.10;99.90;;;;;;4960761;29;20215;-72
2024/01/24 03:43:12;;;;;;;0.40;0.40;;;9.10;99.90;;;;;;4956249;28;20027;-75
2024/01/24 03:45:38;;;;;;;0.40;0.40;;;9.30;99.90;;;;;;4961323;28;20031;-71
2024/01/24 03:48:06;;;;;;;0.70;0.70;;;9.50;99.90;;;;;;4947077;29;20409;-72
2024/01/24 03:50:32;;;;;;;0.70;0.70;;;9.80;99.90;;;;;;4948274;29;20075;-72
2024/01/24 03:53:00;;;;;;;0.52;0.52;;;9.60;99.90;;;;;;4957090;28;20031;-70
2024/01/24 03:55:25;;;;;;;0.60;0.60;;;9.70;99.90;;;;;;4958622;28;20394;-74
2024/01/24 03:57:51;;;;;;;0.98;0.60;;;9.80;99.90;;;;;;4959040;28;20023;-74
2024/01/24 04:00:17;;;;;;;4.20;1.10;;;10.00;99.90;;;;;;4939989;28;20098;-72
2024/01/24 04:02:42;;;;;;;1.05;0.63;;;9.90;99.90;;;;;;4939677;29;20432;-71
2024/01/24 04:05:10;;;;;;;0.77;0.60;;;9.90;99.90;;;;;;4939194;29;20091;-71
2024/01/24 04:07:36;;;;;;;3.10;0.70;;;10.10;99.90;;;;;;4931921;29;20032;-70
2024/01/24 04:10:03;;;;;;;1.67;0.70;;;10.10;99.90;;;;;;4940611;29;20019;-71
2024/01/24 04:12:30;;;;;;;1.20;0.70;;;10.10;99.90;;;;;;4949758;28;20023;-70
2024/01/24 04:14:55;;;;;;;1.55;0.60;;;10.20;99.90;;;;;;4944902;28;20386;-70
2024/01/24 04:17:21;;;;;;;0.88;0.57;;;10.20;99.90;;;;;;4937714;29;20042;-68
2024/01/24 04:19:47;;;;;;;0.60;0.60;;;10.10;99.90;;;;;;4946542;28;20027;-68
2024/01/24 04:22:13;;;;;;;0.60;0.60;;;10.20;99.90;;;;;;4948664;29;20051;-68
2024/01/24 04:24:38;;;;;;;1.10;0.50;;;10.30;99.90;;;;;;4938419;28;20027;-68
2024/01/24 04:27:04;;;;;;;0.40;0.40;;;10.20;99.90;;;;;;4931646;29;20404;-68
2024/01/24 04:29:30;;;;;;;0.70;0.70;;;10.20;99.90;;;;;;4942791;28;20042;-70
2024/01/24 04:31:56;;;;;;;0.40;0.40;;;10.40;99.90;;;;;;4944225;29;20565;-68
2024/01/24 04:34:21;;;;;;;0.57;0.57;;;10.40;99.90;;;;;;4942381;28;20035;-68
2024/01/24 04:36:47;;;;;;;0.40;0.40;;;10.70;99.90;;;;;;4946004;29;20039;-68
2024/01/24 04:39:12;;;;;;;0.98;0.73;;;10.60;99.90;;;;;;4945206;28;20058;-68
2024/01/24 04:41:38;;;;;;;0.35;0.35;;;10.80;99.90;;;;;;4946986;28;20023;-69
2024/01/24 04:44:04;;;;;;;0.65;0.57;;;10.70;99.90;;;;;;4940805;28;20028;-68
2024/01/24 04:46:30;;;;;;;2.15;0.63;;;10.80;99.90;;;;;;4941624;28;20027;-69
2024/01/24 04:48:55;;;;;;;0.73;0.50;;;11.00;99.90;;;;;;4947113;28;20046;-69
2024/01/24 04:51:22;;;;;;;2.20;0.68;;;11.10;99.90;;;;;;4942199;28;20176;-69
2024/01/24 04:53:48;;;;;;;0.73;0.73;;;11.10;99.90;;;;;;4924064;28;20035;-69
2024/01/24 04:56:14;;;;;;;2.58;0.82;;;11.30;99.90;;;;;;4946001;29;20027;-69
2024/01/24 04:58:42;;;;;;;0.32;0.32;;;11.30;99.90;;;;;;4939761;28;20260;-70
2024/01/24 05:01:08;;;;;;;0.57;0.45;;;11.20;99.90;;;;;;4942180;28;20035;-68
2024/01/24 05:03:34;;;;;;;1.02;0.70;;;11.20;99.90;;;;;;4929982;28;20046;-69
2024/01/24 05:06:00;;;;;;;0.63;0.52;;;11.20;99.90;;;;;;4927381;29;20134;-69
2024/01/24 05:08:25;;;;;;;0.43;0.43;;;11.10;99.90;;;;;;4947538;28;20035;-69
2024/01/24 05:10:51;;;;;;;0.75;0.40;;;11.00;99.90;;;;;;4943790;28;20027;-69
2024/01/24 05:13:18;;;;;;;1.08;0.73;;;11.00;99.90;;;;;;4943005;28;20023;-69
2024/01/24 05:15:43;;;;;;;0.80;0.50;;;10.90;99.90;;;;;;4946468;28;20046;-68
2024/01/24 05:18:09;;;;;;;0.57;0.57;;;10.90;99.90;;;;;;4942987;28;20023;-69
2024/01/24 05:20:35;;;;;;;0.47;0.40;;;10.80;99.90;;;;;;4942641;28;20023;-69
2024/01/24 05:23:03;;;;;;;1.63;0.50;;;10.90;99.90;;;;;;4937438;28;20539;-68
2024/01/24 05:25:29;;;;;;;0.82;0.50;;;10.80;99.90;;;;;;4945186;28;20396;-68
2024/01/24 05:27:55;;;;;;;1.02;0.90;;;10.90;99.90;;;;;;4942348;28;20082;-69
2024/01/24 05:30:21;;;;;;;4.30;1.42;;;10.80;99.90;;;;;;4923001;28;20031;-68
2024/01/24 05:32:46;;;;;;;0.57;0.57;;;10.70;99.90;;;;;;4944912;28;20023;-68
2024/01/24 05:35:12;;;;;;;1.23;0.85;;;10.70;99.90;;;;;;4941931;28;20036;-69
2024/01/24 05:37:38;;;;;;;0.60;0.52;;;10.70;99.90;;;;;;4938519;29;20019;-68
2024/01/24 05:40:04;;;;;;;1.75;0.70;;;10.70;99.90;;;;;;4938940;28;20114;-69
2024/01/24 05:42:29;;;;;;;1.25;0.70;;;10.80;99.90;;;;;;4943741;29;20027;-69
2024/01/24 05:44:55;;;;;;;2.45;0.50;;;10.80;99.90;;;;;;4942655;28;20090;-68
2024/01/24 05:47:21;;;;;;;0.52;0.52;;;10.90;99.90;;;;;;4942733;28;20039;-69
2024/01/24 05:49:47;;;;;;;0.70;0.70;;;10.90;99.90;;;;;;4930781;29;20036;-69
2024/01/24 05:52:13;;;;;;;0.50;0.50;;;10.90;99.90;;;;;;4938666;28;20031;-69
2024/01/24 05:54:40;;;;;;;0.95;0.50;;;10.90;99.90;;;;;;4946753;28;20505;-70
2024/01/24 05:57:05;;;;;;;0.93;0.57;;;11.00;99.90;;;;;;4948081;28;20023;-69
2024/01/24 05:59:32;;;;;;;0.70;0.70;;;11.00;99.90;;;;;;4946873;29;20476;-70
2024/01/24 06:01:57;;;;;;;0.75;0.40;;;11.20;99.90;;;;;;4944697;28;20028;-69
2024/01/24 06:04:23;;;;;;;1.08;0.35;;;11.10;99.90;;;;;;4932220;29;20554;-68
2024/01/24 06:06:49;;;;;;;0.82;0.80;;;11.10;99.90;;;;;;4941971;28;20073;-68
2024/01/24 06:09:18;;;;;;;0.60;0.60;;;11.10;99.90;;;;;;4931420;29;20039;-68
2024/01/24 06:11:44;;;;;;;0.60;0.60;;;11.10;99.90;;;;;;4943453;28;20038;-69
2024/01/24 06:14:10;;;;;;;1.27;0.60;;;11.10;99.90;;;;;;4950754;28;20039;-68
2024/01/24 06:16:36;;;;;;;1.65;0.55;;;11.40;99.90;;;;;;4934817;29;20031;-68
2024/01/24 06:19:01;;;;;;;0.50;0.50;;;11.30;99.90;;;;;;4947171;28;20019;-70
2024/01/24 06:21:27;;;;;;;1.75;0.60;;;11.40;99.90;;;;;;4946826;28;20031;-69
2024/01/24 06:23:53;;;;;;;0.75;0.73;;;11.30;99.90;;;;;;4951742;28;20553;-68
2024/01/24 06:26:18;;;;;;;0.70;0.70;;;11.30;99.90;;;;;;4949059;28;20042;-68
2024/01/24 06:28:44;;;;;;;1.95;0.68;;;11.20;99.90;;;;;;4934478;29;20524;-69
2024/01/24 06:31:09;;;;;;;1.58;0.70;;;11.20;99.90;;;;;;4947867;28;20036;-69
2024/01/24 06:33:35;;;;;;;0.60;0.60;;;11.20;99.90;;;;;;4949369;28;20027;-67
2024/01/24 06:36:01;;;;;;;1.30;0.77;;;11.30;99.90;;;;;;4951231;28;20598;-68
2024/01/24 06:38:26;;;;;;;0.60;0.60;;;11.30;99.90;;;;;;4947950;28;20110;-69
2024/01/24 06:40:52;;;;;;;0.40;0.40;;;11.20;99.90;;;;;;4948400;28;20298;-69
2024/01/24 06:43:20;;;;;;;1.02;0.57;;;11.10;99.90;;;;;;4931446;29;20529;-68
2024/01/24 06:45:46;;;;;;;;;;;11.20;99.90;;;;;;4946782;28;20219;-69
2024/01/24 06:48:11;;;;;;;1.27;0.70;;;11.20;99.90;;;;;;4947134;29;19953;-68
2024/01/24 06:50:38;;;;;;;1.50;0.80;;;11.30;99.90;;;;;;4944538;29;20031;-69
2024/01/24 06:53:09;;;;;;;0.70;0.70;;;11.30;99.90;;;;;;4943904;29;20033;-68
2024/01/24 06:55:36;;;;;;;1.95;0.90;;;11.30;99.90;;;;;;4944633;28;20477;-69
2024/01/24 06:58:02;;;;;;;2.25;2.05;;;11.30;99.90;;;;;;4934254;29;20552;-68
2024/01/24 07:00:29;;;;;;;1.00;0.70;;;11.30;99.90;;;;;;4942375;28;20230;-68
2024/01/24 07:02:55;;;;;;;0.82;0.38;;;11.20;99.90;;;;;;4943742;28;20038;-70
2024/01/24 07:05:21;;;;;;;0.50;0.50;;;11.10;99.90;;;;;;4948231;28;20370;-68
2024/01/24 07:07:47;;;;;;;0.80;0.80;;;11.20;99.90;;;;;;4946750;29;20106;-69
2024/01/24 07:10:13;;;;;;;1.25;0.70;;;11.20;99.90;;;;;;4948739;28;20038;-69
2024/01/24 07:12:44;;;;;;;0.70;0.70;;;11.20;99.90;;;;;;4933387;29;20441;-69
2024/01/24 07:15:11;;;;;;;1.10;1.00;;;11.10;99.90;;;;;;4938330;28;20062;-69
2024/01/24 07:17:37;;;;;;;0.60;0.60;;;11.10;99.90;;;;;;4939918;28;20019;-69
2024/01/24 07:20:03;;;;;;;0.60;0.60;;;11.10;99.90;;;;;;4946233;28;20396;-70
2024/01/24 07:22:28;;;;;;;0.57;0.57;;;11.10;99.90;;;;;;4941053;29;20737;-69
2024/01/24 07:24:54;;;;;;;1.33;0.70;;;11.10;99.90;;;;;;4946834;28;20035;-69
2024/01/24 07:27:20;;;;;;;0.63;0.63;;;11.10;99.90;;;;;;4948411;29;20047;-69
2024/01/24 07:29:45;;;;;;;0.60;0.60;;;11.10;99.90;;;;;;4946940;28;20094;-69
2024/01/24 07:32:11;;;;;;;0.82;0.70;;;11.10;99.90;;;;;;4947116;28;20402;-69
2024/01/24 07:34:38;;;;;;;0.80;0.60;;;10.90;99.90;;;;;;4946504;28;20161;-68
2024/01/24 07:37:04;;;;;;;0.60;0.60;;;10.90;99.90;;;;;;4945977;29;20035;-68
2024/01/24 07:39:30;;;;;;;3.80;0.70;;;10.90;99.90;;;;;;4946456;29;20027;-68
2024/01/24 07:41:56;;;;;;;0.60;0.60;;;10.90;99.90;;;;;;4946151;29;20035;-69
2024/01/24 07:44:22;;;;;;;0.77;0.60;;;11.00;99.90;;;;;;4934787;28;20031;-69
2024/01/24 07:46:48;;;;;;;0.73;0.60;;;11.00;99.90;;;;;;4947008;28;20126;-69
2024/01/24 07:49:14;;;;;;;1.05;0.60;;;11.00;99.90;;;;;;4947662;29;20482;-69
2024/01/24 07:51:41;;;;;;;1.40;0.82;;;10.90;99.90;;;;;;4943982;29;20047;-68
2024/01/24 07:54:07;;;;;;;1.08;0.77;;;10.90;99.90;;;;;;4942347;29;20544;-69
2024/01/24 07:56:32;;;;;;;1.77;1.00;;;10.90;99.90;;;;;;4940806;28;20040;-68
2024/01/24 07:58:58;;;;;;;1.05;0.65;;;10.90;99.90;;;;;;4942570;29;20027;-68
2024/01/24 08:01:24;;;;;;;3.67;0.90;;;11.00;99.90;;;;;;4934808;29;20041;-69
2024/01/24 08:03:50;;;;;;;1.30;0.73;;;11.00;99.90;;;;;;4944373;28;20062;-69
2024/01/24 08:06:16;;;;;;;2.55;0.98;;;11.00;99.90;;;;;;4946430;29;20396;-69
2024/01/24 08:08:42;;;;;;;1.27;0.77;;;11.00;99.90;;;;;;4941800;28;20104;-69
2024/01/24 08:11:07;;;;;;;0.63;0.63;;;11.00;99.90;;;;;;4948913;28;20114;-68
2024/01/24 08:13:33;;;;;;;1.30;0.73;;;11.00;99.90;;;;;;4932502;28;20031;-69
2024/01/24 08:15:59;;;;;;;0.70;0.68;;;11.00;99.90;;;;;;4943335;28;20054;-69
2024/01/24 08:18:25;;;;;;;1.00;0.85;;;11.10;99.90;;;;;;4945277;28;20444;-70
2024/01/24 08:20:52;;;;;;;2.40;0.80;;;11.10;99.90;;;;;;4945921;28;20038;-69
2024/01/24 08:23:18;;;;;;;0.70;0.70;;;11.20;99.90;;;;;;4946496;28;20301;-69
2024/01/24 08:25:44;;;;;;;2.08;0.70;;;11.10;99.90;;;;;;4946665;28;20027;-69
2024/01/24 08:28:10;;;;;;;0.55;0.55;;;11.20;99.90;;;;;;4948496;28;20541;-69
2024/01/24 08:30:36;;;;;;;0.75;0.75;;;11.30;99.90;;;;;;4945573;28;20026;-69
2024/01/24 08:33:02;;;;;;;0.60;0.60;;;11.40;99.90;;;;;;4949787;28;20020;-68
2024/01/24 08:35:27;;;;;;;0.50;0.50;;;11.40;99.90;;;;;;4952650;28;20058;-69
2024/01/24 08:37:53;;;;;;;1.15;0.80;;;11.40;99.90;;;;;;4951782;28;20035;-69
2024/01/24 08:40:21;;;;;;;0.63;0.63;;;11.40;99.90;;;;;;4950641;28;20086;-69
2024/01/24 08:42:46;;;;;;;0.60;0.60;;;11.40;99.90;;;;;;4950689;28;20252;-68
2024/01/24 08:45:12;;;;;;;1.88;0.95;;;11.50;99.90;;;;;;4944979;28;20118;-68
2024/01/24 08:47:38;;;;;;;0.85;0.75;;;11.60;99.90;;;;;;4954452;28;20384;-69
2024/01/24 08:50:05;;;;;;;0.65;0.65;;;11.70;99.90;;;;;;4933498;28;20035;-68
2024/01/24 08:52:34;;;;;;;1.58;0.60;;;11.70;99.90;;;;;;4950285;28;20038;-69
2024/01/24 08:55:00;;;;;;;0.40;0.40;;;11.70;99.90;;;;;;4940763;28;20058;-70
2024/01/24 08:57:26;;;;;;;0.63;0.63;;;11.70;99.90;;;;;;4947806;28;20031;-70
2024/01/24 08:59:53;;;;;;;1.15;0.50;;;11.60;99.90;;;;;;4938918;28;20397;-69
2024/01/24 09:02:18;;;;;;;0.75;0.60;;;11.70;99.90;;;;;;4949390;28;20155;-68
2024/01/24 09:04:46;;;;;;;0.60;0.60;;;11.70;99.90;;;;;;4947320;28;20577;-69
2024/01/24 09:07:14;;;;;;;0.60;0.60;;;11.70;99.90;;;;;;4952565;28;20021;-69
2024/01/24 09:09:40;;;;;;;0.77;0.77;;;11.80;99.90;;;;;;4945770;28;20732;-69
2024/01/24 09:12:06;;;;;;;0.75;0.75;;;11.80;99.90;;;;;;4953542;28;20027;-69
2024/01/24 09:14:32;;;;;;;0.68;0.63;;;11.80;99.90;;;;;;4948890;28;20046;-69
2024/01/24 09:16:57;;;;;;;0.60;0.60;;;11.80;99.90;;;;;;4950681;28;20092;-70
2024/01/24 09:19:23;;;;;;;1.65;0.88;;;11.80;99.90;;;;;;4968144;28;20083;-70
2024/01/24 09:21:49;;;;;;;3.00;0.60;;;11.80;99.90;;;;;;4954055;28;20129;-70
2024/01/24 09:24:15;;;;;;;0.60;0.55;;;11.90;99.90;;;;;;4957333;28;20066;-69
2024/01/24 09:26:40;;;;;;;1.42;0.68;;;11.90;99.90;;;;;;4970293;28;20082;-71
2024/01/24 09:29:11;;;;;;;0.40;0.40;;;12.00;99.90;;;;;;4977983;28;20046;-70
2024/01/24 09:31:38;;;;;;;0.88;0.50;;;12.10;99.90;;;;;;4974210;28;20031;-72
2024/01/24 09:34:04;;;;;;;0.93;0.55;;;12.10;99.90;;;;;;4976246;28;20026;-70
2024/01/24 09:36:30;;;;;;;0.40;0.40;;;12.30;99.90;;;;;;4963494;29;20015;-72
2024/01/24 09:38:55;;;;;;;0.82;0.80;;;12.30;99.90;;;;;;4978191;28;20038;-71
2024/01/24 09:41:21;;;;;;;0.98;0.70;;;12.30;99.90;;;;;;4968173;28;20549;-71
2024/01/24 09:43:48;;;;;;;0.30;0.30;;;12.30;99.90;;;;;;4974674;28;20027;-69
2024/01/24 09:46:18;;;;;;;0.68;0.68;;;12.30;99.90;;;;;;4960882;29;20090;-70
2024/01/24 09:48:45;;;;;;;2.15;0.68;;;12.30;99.90;;;;;;4950335;29;20492;-70
2024/01/24 09:51:11;;;;;;;0.60;0.60;;;12.40;99.90;;;;;;4964211;28;20031;-70
2024/01/24 09:53:39;;;;;;;1.55;0.65;;;12.40;99.90;;;;;;4963858;28;20106;-71
2024/01/24 09:56:06;;;;;;;1.70;0.60;;;12.40;99.90;;;;;;4972510;28;20079;-71
2024/01/24 09:58:31;;;;;;;0.75;0.50;;;12.40;99.90;;;;;;4974962;28;20209;-71
2024/01/24 10:01:00;;;;;;;2.50;0.57;;;12.30;99.90;;;;;;4971238;28;20321;-71
2024/01/24 10:03:27;;;;;;;2.33;0.50;;;12.30;99.90;;;;;;4973983;28;20099;-71
2024/01/24 10:05:54;;;;;;;0.35;0.35;;;12.30;99.90;;;;;;4977371;28;20106;-69
2024/01/24 10:08:20;;;;;;;0.50;0.50;;;12.40;99.90;;;;;;4957385;28;20023;-69
2024/01/24 10:10:46;;;;;;;0.73;0.30;;;12.40;99.90;;;;;;4948875;28;20493;-69
2024/01/24 10:13:11;;;;;;;0.55;0.55;;;12.40;99.90;;;;;;4954144;28;20107;-68
2024/01/24 10:15:37;;;;;;;0.50;0.50;;;12.50;99.90;;;;;;4959354;28;20030;-69
2024/01/24 10:18:04;;;;;;;0.57;0.57;;;12.40;99.90;;;;;;4955179;28;20709;-69
2024/01/24 10:20:30;;;;;;;2.13;0.70;;;12.50;99.90;;;;;;4936507;28;20063;-70
2024/01/24 10:22:55;;;;;;;0.40;0.40;;;12.50;99.90;;;;;;4945696;28;20263;-69
2024/01/24 10:25:21;;;;;;;0.60;0.60;;;12.50;99.90;;;;;;4948546;28;20031;-70
2024/01/24 10:27:47;;;;;;;1.02;0.63;;;12.60;99.90;;;;;;4936529;29;20627;-70
2024/01/24 10:30:15;;;;;;;0.55;0.55;;;12.70;99.90;;;;;;4946201;28;20038;-70
2024/01/24 10:32:44;;;;;;;0.43;0.43;;;12.80;99.90;;;;;;4930712;29;20031;-70
2024/01/24 10:35:10;;;;;;;1.67;0.40;;;12.80;99.90;;;;;;4934299;29;20074;-70
2024/01/24 10:37:36;;;;;;;0.65;0.50;;;12.90;99.90;;;;;;4944804;29;20038;-71
2024/01/24 10:40:13;;;;;;;0.93;0.47;;;12.90;99.90;;;;;;4949632;28;20019;-70
2024/01/24 10:42:43;;;;;;;0.93;0.57;;;12.90;99.90;;;;;;4938718;29;20490;-70
2024/01/24 10:45:09;;;;;;;0.68;0.60;;;12.90;99.90;;;;;;4931979;29;20031;-71
2024/01/24 10:47:35;;;;;;;0.52;0.50;;;12.80;99.90;;;;;;4944299;28;20039;-72
2024/01/24 10:50:06;;;;;;;1.80;0.50;;;12.80;99.90;;;;;;4937620;29;20229;-71
2024/01/24 10:52:33;;;;;;;0.60;0.60;;;12.80;99.90;;;;;;4945083;28;20028;-72
2024/01/24 10:55:06;;;;;;;0.25;0.25;;;12.80;99.90;;;;;;4951151;28;20079;-71
2024/01/24 10:57:35;;;;;;;0.40;0.40;;;12.80;99.90;;;;;;4926813;29;20114;-71
2024/01/24 11:00:10;;;;;;;0.47;0.47;;;12.80;99.90;;;;;;4946676;28;20068;-71
2024/01/24 11:02:41;;;;;;;0.43;0.43;;;12.80;99.90;;;;;;4947319;28;20038;-72
2024/01/24 11:05:10;;;;;;;0.32;0.32;;;12.80;99.90;;;;;;4949133;29;20027;-71
2024/01/24 11:07:43;;;;;;;0.30;0.30;;;12.80;99.90;;;;;;4950668;28;20023;-71
2024/01/24 11:10:23;;;;;;;0.52;0.52;;;12.80;99.90;;;;;;4949102;28;20031;-72
2024/01/24 11:12:49;;;;;;;0.32;0.32;;;12.80;99.90;;;;;;4954715;28;20417;-71
2024/01/24 11:15:15;;;;;;;1.50;0.68;;;12.80;99.90;;;;;;4950347;28;20027;-72
2024/01/24 11:17:44;;;;;;;0.45;0.45;;;12.80;99.90;;;;;;4947932;28;20038;-72
2024/01/24 11:20:11;;;;;;;1.02;0.57;;;12.80;99.90;;;;;;4928362;29;20035;-71
2024/01/24 11:22:37;;;;;;;0.40;0.40;;;12.70;99.90;;;;;;4951008;28;20041;-72
2024/01/24 11:25:04;;;;;;;0.40;0.35;;;12.70;99.90;;;;;;4935626;29;20400;-72
2024/01/24 11:27:36;;;;;;;0.50;0.50;;;12.60;99.90;;;;;;4957650;28;20030;-71
2024/01/24 11:30:17;;;;;;;0.43;0.43;;;12.70;99.90;;;;;;4946090;28;20019;-72
2024/01/24 11:32:50;;;;;;;0.50;0.50;;;12.80;99.90;;;;;;4951387;28;20333;-72
2024/01/24 11:35:34;;;;;;;0.68;0.60;;;12.80;99.90;;;;;;4945411;28;20104;-71
2024/01/24 11:38:08;;;;;;;2.22;0.60;;;12.60;99.90;;;;;;4953323;28;20548;-72
2024/01/24 11:40:37;;;;;;;0.52;0.40;;;12.70;99.90;;;;;;4939554;29;20536;-73
2024/01/24 11:43:03;;;;;;;0.50;0.50;;;12.60;99.90;;;;;;4956568;28;20027;-72
2024/01/24 11:45:30;;;;;;;1.08;0.82;;;12.80;99.90;;;;;;4951384;28;20170;-72
2024/01/24 11:47:57;;;;;;;0.57;0.57;;;12.80;99.90;;;;;;4958018;28;20782;-73
2024/01/24 11:50:23;;;;;;;0.73;0.73;;;12.70;99.90;;;;;;4953085;28;20059;-72
2024/01/24 11:52:49;;;;;;;0.40;0.30;;;12.70;99.90;;;;;;4926716;29;20507;-72
2024/01/24 11:55:15;;;;;;;0.65;0.40;;;12.40;99.90;;;;;;4942064;28;20027;-71
2024/01/24 11:57:41;;;;;;;1.00;0.55;;;12.20;99.90;;;;;;4952828;28;20027;-72
2024/01/24 12:00:14;;;;;;;0.30;0.30;;;12.00;99.90;;;;;;4951624;28;20082;-71
2024/01/24 12:02:43;;;;;;;0.63;0.63;;;11.90;99.90;;;;;;4932129;29;20023;-72
2024/01/24 12:05:12;;;;;;;0.38;0.38;;;11.90;99.90;;;;;;4940047;28;20042;-72
2024/01/24 12:07:38;;;;;;;0.63;0.40;;;11.90;99.90;;;;;;4948167;28;20370;-72
2024/01/24 12:10:07;;;;;;;0.40;0.40;;;11.90;99.90;;;;;;4951705;28;20033;-72
2024/01/24 12:12:34;;;;;;;0.50;0.50;;;11.80;99.90;;;;;;4953730;28;20031;-72
2024/01/24 12:15:00;;;;;;;0.40;0.40;;;11.80;99.90;;;;;;4945748;28;20032;-72
2024/01/24 12:17:29;;;;;;;0.43;0.43;;;11.80;99.90;;;;;;4953234;28;20035;-72
2024/01/24 12:19:58;;;;;;;0.65;0.60;;;11.80;99.90;;;;;;4949604;28;20023;-72
2024/01/24 12:22:24;;;;;;;0.77;0.40;;;11.80;99.90;;;;;;4933286;29;20404;-72
2024/01/24 12:25:01;;;;;;;2.47;0.55;;;11.70;99.90;;;;;;4957990;28;20035;-71
2024/01/24 12:27:39;;;;;;;1.35;0.88;;;11.70;99.90;;;;;;4948353;29;20078;-72
2024/01/24 12:30:11;;;;;;;0.30;0.30;;;11.60;99.90;;;;;;4940613;29;20031;-71
2024/01/24 12:32:57;;;;;;;0.40;0.40;;;11.50;99.90;;;;;;4946714;29;20504;-72
2024/01/24 12:35:24;;;;;;;1.50;0.47;;;11.60;99.90;;;;;;4932687;29;20039;-71
2024/01/24 12:37:56;;;;;;;0.50;0.40;;;11.60;99.90;;;;;;4944618;29;20050;-72
2024/01/24 12:40:22;;;;;;;0.73;0.40;;;11.70;99.90;;;;;;4945313;29;20393;-71
2024/01/24 12:42:51;;;;;;;1.35;0.40;;;11.80;99.90;;;;;;4948979;28;20103;-71
2024/01/24 12:45:23;;;;;;;0.60;0.60;;;11.90;99.90;;;;;;4949366;28;20047;-70
2024/01/24 12:47:53;;;;;;;0.50;0.50;;;12.00;99.90;;;;;;4950062;29;20173;-72